sensor_id;sensor_type;location;lat;lon;timestamp;temperature;humidity
70550;DHT22;58101;48.658;2.328;2024-02-21T00:00:44;7.00;99.90
70550;DHT22;58101;48.658;2.328;2024-02-21T00:03:09;6.90;99.90
70550;DHT22;58101;48.658;2.328;2024-02-21T00:05:35;7.00;99.90
70550;DHT22;58101;48.658;2.328;2024-02-21T00:08:01;7.00;99.90
70550;DHT22;58101;48.658;2.328;2024-02-21T00:10:28;7.00;99.90
70550;DHT22;58101;48.658;2.328;2024-02-21T00:12:54;7.10;99.90
70550;DHT22;58101;48.658;2.328;2024-02-21T00:15:20;7.00;99.90
70550;DHT22;58101;48.658;2.328;2024-02-21T00:17:46;7.00;99.90
70550;DHT22;58101;48.658;2.328;2024-02-21T00:20:12;7.00;99.90
70550;DHT22;58101;48.658;2.328;2024-02-21T00:22:38;7.00;99.90
70550;DHT22;58101;48.658;2.328;2024-02-21T00:25:04;7.00;99.90
70550;DHT22;58101;48.658;2.328;2024-02-21T00:27:29;7.00;99.90
70550;DHT22;58101;48.658;2.328;2024-02-21T00:29:55;7.00;99.90
70550;DHT22;58101;48.658;2.328;2024-02-21T00:32:20;7.00;99.90
70550;DHT22;58101;48.658;2.328;2024-02-21T00:34:46;7.00;99.90
70550;DHT22;58101;48.658;2.328;2024-02-21T00:37:12;7.00;99.90
70550;DHT22;58101;48.658;2.328;2024-02-21T00:39:37;7.00;99.90
70550;DHT22;58101;48.658;2.328;2024-02-21T00:42:03;7.00;99.90
70550;DHT22;58101;48.658;2.328;2024-02-21T00:44:29;7.00;99.90
70550;DHT22;58101;48.658;2.328;2024-02-21T00:46:54;7.00;99.90
70550;DHT22;58101;48.658;2.328;2024-02-21T00:49:20;7.00;99.90
70550;DHT22;58101;48.658;2.328;2024-02-21T00:51:47;7.00;99.90
70550;DHT22;58101;48.658;2.328;2024-02-21T00:54:12;6.90;99.90
70550;DHT22;58101;48.658;2.328;2024-02-21T00:56:38;7.10;99.90
70550;DHT22;58101;48.658;2.328;2024-02-21T00:59:04;6.90;99.90
70550;DHT22;58101;48.658;2.328;2024-02-21T01:01:29;6.90;99.90
70550;DHT22;58101;48.658;2.328;2024-02-21T01:03:55;6.90;99.90
70550;DHT22;58101;48.658;2.328;2024-02-21T01:06:21;6.80;99.90
70550;DHT22;58101;48.658;2.328;2024-02-21T01:08:49;6.80;99.90
70550;DHT22;58101;48.658;2.328;2024-02-21T01:11:15;6.90;99.90
70550;DHT22;58101;48.658;2.328;2024-02-21T01:13:42;6.80;99.90
70550;DHT22;58101;48.658;2.328;2024-02-21T01:16:07;6.80;99.90
70550;DHT22;58101;48.658;2.328;2024-02-21T01:18:34;6.90;99.90
70550;DHT22;58101;48.658;2.328;2024-02-21T01:21:00;6.90;99.90
70550;DHT22;58101;48.658;2.328;2024-02-21T01:23:25;6.80;99.90
70550;DHT22;58101;48.658;2.328;2024-02-21T01:25:51;6.80;99.90
70550;DHT22;58101;48.658;2.328;2024-02-21T01:28:17;6.80;99.90
70550;DHT22;58101;48.658;2.328;2024-02-21T01:30:43;6.70;99.90
70550;DHT22;58101;48.658;2.328;2024-02-21T01:33:09;6.70;99.90
70550;DHT22;58101;48.658;2.328;2024-02-21T01:35:35;6.70;99.90
70550;DHT22;58101;48.658;2.328;2024-02-21T01:38:01;6.50;99.90
70550;DHT22;58101;48.658;2.328;2024-02-21T01:40:27;6.60;99.90
70550;DHT22;58101;48.658;2.328;2024-02-21T01:42:55;6.60;99.90
70550;DHT22;58101;48.658;2.328;2024-02-21T01:45:20;6.60;99.90
70550;DHT22;58101;48.658;2.328;2024-02-21T01:47:46;6.60;99.90
70550;DHT22;58101;48.658;2.328;2024-02-21T01:50:14;6.60;99.90
70550;DHT22;58101;48.658;2.328;2024-02-21T01:52:41;6.50;99.90
70550;DHT22;58101;48.658;2.328;2024-02-21T01:55:07;6.50;99.90
70550;DHT22;58101;48.658;2.328;2024-02-21T01:57:35;6.50;99.90
70550;DHT22;58101;48.658;2.328;2024-02-21T02:00:01;6.50;99.90
70550;DHT22;58101;48.658;2.328;2024-02-21T02:02:27;6.50;99.90
70550;DHT22;58101;48.658;2.328;2024-02-21T02:04:52;6.50;99.90
70550;DHT22;58101;48.658;2.328;2024-02-21T02:07:18;6.60;99.90
70550;DHT22;58101;48.658;2.328;2024-02-21T02:09:44;6.80;99.90
70550;DHT22;58101;48.658;2.328;2024-02-21T02:12:09;6.60;99.90
70550;DHT22;58101;48.658;2.328;2024-02-21T02:14:35;6.70;99.90
70550;DHT22;58101;48.658;2.328;2024-02-21T02:17:01;6.70;99.90
70550;DHT22;58101;48.658;2.328;2024-02-21T02:19:26;6.70;99.90
70550;DHT22;58101;48.658;2.328;2024-02-21T02:22:00;6.70;99.90
70550;DHT22;58101;48.658;2.328;2024-02-21T02:24:29;6.70;99.90
70550;DHT22;58101;48.658;2.328;2024-02-21T02:26:54;6.60;99.90
70550;DHT22;58101;48.658;2.328;2024-02-21T02:29:20;6.60;99.90
70550;DHT22;58101;48.658;2.328;2024-02-21T02:31:45;6.50;99.90
70550;DHT22;58101;48.658;2.328;2024-02-21T02:34:11;6.60;99.90
70550;DHT22;58101;48.658;2.328;2024-02-21T02:36:37;6.50;99.90
70550;DHT22;58101;48.658;2.328;2024-02-21T02:39:02;6.50;99.90
70550;DHT22;58101;48.658;2.328;2024-02-21T02:41:28;6.50;99.90
70550;DHT22;58101;48.658;2.328;2024-02-21T02:43:54;6.60;99.90
70550;DHT22;58101;48.658;2.328;2024-02-21T02:46:19;6.60;99.90
70550;DHT22;58101;48.658;2.328;2024-02-21T02:48:45;6.60;99.90
70550;DHT22;58101;48.658;2.328;2024-02-21T02:51:10;6.60;99.90
70550;DHT22;58101;48.658;2.328;2024-02-21T02:53:36;6.70;99.90
70550;DHT22;58101;48.658;2.328;2024-02-21T02:56:02;6.60;99.90
70550;DHT22;58101;48.658;2.328;2024-02-21T02:58:28;6.70;99.90
70550;DHT22;58101;48.658;2.328;2024-02-21T03:00:54;6.70;99.90
70550;DHT22;58101;48.658;2.328;2024-02-21T03:03:19;6.90;99.90
70550;DHT22;58101;48.658;2.328;2024-02-21T03:05:46;6.90;99.90
70550;DHT22;58101;48.658;2.328;2024-02-21T03:08:11;6.80;99.90
70550;DHT22;58101;48.658;2.328;2024-02-21T03:10:37;6.90;99.90
70550;DHT22;58101;48.658;2.328;2024-02-21T03:13:03;6.80;99.90
70550;DHT22;58101;48.658;2.328;2024-02-21T03:15:29;6.80;99.90
70550;DHT22;58101;48.658;2.328;2024-02-21T03:17:54;6.80;99.90
70550;DHT22;58101;48.658;2.328;2024-02-21T03:20:20;6.90;99.90
70550;DHT22;58101;48.658;2.328;2024-02-21T03:22:46;7.10;99.90
70550;DHT22;58101;48.658;2.328;2024-02-21T03:25:11;6.90;99.90
70550;DHT22;58101;48.658;2.328;2024-02-21T03:27:39;6.90;99.90
70550;DHT22;58101;48.658;2.328;2024-02-21T03:30:05;6.80;99.90
70550;DHT22;58101;48.658;2.328;2024-02-21T03:32:31;6.80;99.90
70550;DHT22;58101;48.658;2.328;2024-02-21T03:34:56;6.80;99.90
70550;DHT22;58101;48.658;2.328;2024-02-21T03:37:22;6.80;99.90
70550;DHT22;58101;48.658;2.328;2024-02-21T03:39:47;6.70;99.90
70550;DHT22;58101;48.658;2.328;2024-02-21T03:42:13;6.70;99.90
70550;DHT22;58101;48.658;2.328;2024-02-21T03:44:39;6.60;99.90
70550;DHT22;58101;48.658;2.328;2024-02-21T03:47:05;6.70;99.90
70550;DHT22;58101;48.658;2.328;2024-02-21T03:49:30;6.60;99.90
70550;DHT22;58101;48.658;2.328;2024-02-21T03:51:56;6.60;99.90
70550;DHT22;58101;48.658;2.328;2024-02-21T03:54:22;6.60;99.90
70550;DHT22;58101;48.658;2.328;2024-02-21T03:56:47;6.60;99.90
70550;DHT22;58101;48.658;2.328;2024-02-21T03:59:14;6.50;99.90
70550;DHT22;58101;48.658;2.328;2024-02-21T04:01:40;6.50;99.90
70550;DHT22;58101;48.658;2.328;2024-02-21T04:04:05;6.50;99.90
70550;DHT22;58101;48.658;2.328;2024-02-21T04:06:32;6.60;99.90
70550;DHT22;58101;48.658;2.328;2024-02-21T04:08:57;6.70;99.90
70550;DHT22;58101;48.658;2.328;2024-02-21T04:11:23;6.60;99.90
70550;DHT22;58101;48.658;2.328;2024-02-21T04:13:50;6.60;99.90
70550;DHT22;58101;48.658;2.328;2024-02-21T04:16:17;6.70;99.90
70550;DHT22;58101;48.658;2.328;2024-02-21T04:18:43;6.70;99.90
70550;DHT22;58101;48.658;2.328;2024-02-21T04:21:09;6.70;99.90
70550;DHT22;58101;48.658;2.328;2024-02-21T04:23:35;6.70;99.90
70550;DHT22;58101;48.658;2.328;2024-02-21T04:26:01;6.90;99.90
70550;DHT22;58101;48.658;2.328;2024-02-21T04:28:26;6.70;99.90
70550;DHT22;58101;48.658;2.328;2024-02-21T04:30:52;6.80;99.90
70550;DHT22;58101;48.658;2.328;2024-02-21T04:33:18;6.80;99.90
70550;DHT22;58101;48.658;2.328;2024-02-21T04:35:43;6.70;99.90
70550;DHT22;58101;48.658;2.328;2024-02-21T04:38:09;6.70;99.90
70550;DHT22;58101;48.658;2.328;2024-02-21T04:40:35;6.70;99.90
70550;DHT22;58101;48.658;2.328;2024-02-21T04:43:00;6.70;99.90
70550;DHT22;58101;48.658;2.328;2024-02-21T04:45:26;6.70;99.90
70550;DHT22;58101;48.658;2.328;2024-02-21T04:47:51;6.70;99.90
70550;DHT22;58101;48.658;2.328;2024-02-21T04:50:17;6.60;99.90
70550;DHT22;58101;48.658;2.328;2024-02-21T04:52:43;6.60;99.90
70550;DHT22;58101;48.658;2.328;2024-02-21T04:55:09;6.60;99.90
70550;DHT22;58101;48.658;2.328;2024-02-21T04:57:34;6.60;99.90
70550;DHT22;58101;48.658;2.328;2024-02-21T05:00:00;6.60;99.90
70550;DHT22;58101;48.658;2.328;2024-02-21T05:02:26;6.60;99.90
70550;DHT22;58101;48.658;2.328;2024-02-21T05:04:52;6.60;99.90
70550;DHT22;58101;48.658;2.328;2024-02-21T05:07:18;6.60;99.90
70550;DHT22;58101;48.658;2.328;2024-02-21T05:09:45;6.60;99.90
70550;DHT22;58101;48.658;2.328;2024-02-21T05:12:11;6.60;99.90
70550;DHT22;58101;48.658;2.328;2024-02-21T05:14:37;6.80;99.90
70550;DHT22;58101;48.658;2.328;2024-02-21T05:17:05;6.60;99.90
70550;DHT22;58101;48.658;2.328;2024-02-21T05:19:31;6.60;99.90
70550;DHT22;58101;48.658;2.328;2024-02-21T05:21:58;6.70;99.90
70550;DHT22;58101;48.658;2.328;2024-02-21T05:24:23;6.60;99.90
70550;DHT22;58101;48.658;2.328;2024-02-21T05:26:49;6.60;99.90
70550;DHT22;58101;48.658;2.328;2024-02-21T05:29:15;6.60;99.90
70550;DHT22;58101;48.658;2.328;2024-02-21T05:32:07;6.60;99.90
70550;DHT22;58101;48.658;2.328;2024-02-21T05:34:32;6.60;99.90
70550;DHT22;58101;48.658;2.328;2024-02-21T05:36:58;6.60;99.90
70550;DHT22;58101;48.658;2.328;2024-02-21T05:39:25;6.60;99.90
70550;DHT22;58101;48.658;2.328;2024-02-21T05:41:50;6.60;99.90
70550;DHT22;58101;48.658;2.328;2024-02-21T05:44:16;6.80;99.90
70550;DHT22;58101;48.658;2.328;2024-02-21T05:46:42;6.70;99.90
70550;DHT22;58101;48.658;2.328;2024-02-21T05:49:08;6.70;99.90
70550;DHT22;58101;48.658;2.328;2024-02-21T05:51:34;6.70;99.90
70550;DHT22;58101;48.658;2.328;2024-02-21T05:54:00;6.70;99.90
70550;DHT22;58101;48.658;2.328;2024-02-21T05:56:26;6.80;99.90
70550;DHT22;58101;48.658;2.328;2024-02-21T05:58:52;6.80;99.90
70550;DHT22;58101;48.658;2.328;2024-02-21T06:01:18;6.80;99.90
70550;DHT22;58101;48.658;2.328;2024-02-21T06:03:44;6.80;99.90
70550;DHT22;58101;48.658;2.328;2024-02-21T06:06:09;6.80;99.90
70550;DHT22;58101;48.658;2.328;2024-02-21T06:08:35;7.00;99.90
70550;DHT22;58101;48.658;2.328;2024-02-21T06:11:00;6.90;99.90
70550;DHT22;58101;48.658;2.328;2024-02-21T06:13:26;6.90;99.90
70550;DHT22;58101;48.658;2.328;2024-02-21T06:15:53;6.90;99.90
70550;DHT22;58101;48.658;2.328;2024-02-21T06:18:19;6.90;99.90
70550;DHT22;58101;48.658;2.328;2024-02-21T06:20:45;6.90;99.90
70550;DHT22;58101;48.658;2.328;2024-02-21T06:23:16;6.90;99.90
70550;DHT22;58101;48.658;2.328;2024-02-21T06:25:44;6.90;99.90
70550;DHT22;58101;48.658;2.328;2024-02-21T06:28:10;6.90;99.90
70550;DHT22;58101;48.658;2.328;2024-02-21T06:30:36;6.90;99.90
70550;DHT22;58101;48.658;2.328;2024-02-21T06:33:01;7.10;99.90
70550;DHT22;58101;48.658;2.328;2024-02-21T06:35:28;6.90;99.90
70550;DHT22;58101;48.658;2.328;2024-02-21T06:37:54;6.90;99.90
70550;DHT22;58101;48.658;2.328;2024-02-21T06:40:23;6.90;99.90
70550;DHT22;58101;48.658;2.328;2024-02-21T06:42:49;6.90;99.90
70550;DHT22;58101;48.658;2.328;2024-02-21T06:45:15;7.00;99.90
70550;DHT22;58101;48.658;2.328;2024-02-21T06:47:41;6.90;99.90
70550;DHT22;58101;48.658;2.328;2024-02-21T06:50:08;6.90;99.90
70550;DHT22;58101;48.658;2.328;2024-02-21T06:52:34;6.90;99.90
70550;DHT22;58101;48.658;2.328;2024-02-21T06:55:00;6.90;99.90
70550;DHT22;58101;48.658;2.328;2024-02-21T06:57:25;7.10;99.90
70550;DHT22;58101;48.658;2.328;2024-02-21T06:59:51;6.90;99.90
70550;DHT22;58101;48.658;2.328;2024-02-21T07:02:17;7.00;99.90
70550;DHT22;58101;48.658;2.328;2024-02-21T07:04:42;7.00;99.90
70550;DHT22;58101;48.658;2.328;2024-02-21T07:07:09;7.00;99.90
70550;DHT22;58101;48.658;2.328;2024-02-21T07:09:34;7.00;99.90
70550;DHT22;58101;48.658;2.328;2024-02-21T07:12:00;7.10;99.90
70550;DHT22;58101;48.658;2.328;2024-02-21T07:14:28;7.00;99.90
70550;DHT22;58101;48.658;2.328;2024-02-21T07:16:54;7.10;99.90
70550;DHT22;58101;48.658;2.328;2024-02-21T07:19:20;7.10;99.90
70550;DHT22;58101;48.658;2.328;2024-02-21T07:21:45;7.10;99.90
70550;DHT22;58101;48.658;2.328;2024-02-21T07:24:11;7.10;99.90
70550;DHT22;58101;48.658;2.328;2024-02-21T07:26:40;7.10;99.90
70550;DHT22;58101;48.658;2.328;2024-02-21T07:29:06;7.10;99.90
70550;DHT22;58101;48.658;2.328;2024-02-21T07:31:38;7.10;99.90
70550;DHT22;58101;48.658;2.328;2024-02-21T07:34:03;7.10;99.90
70550;DHT22;58101;48.658;2.328;2024-02-21T07:36:30;7.20;99.90
70550;DHT22;58101;48.658;2.328;2024-02-21T07:38:56;7.20;99.90
70550;DHT22;58101;48.658;2.328;2024-02-21T07:41:21;7.20;99.90
70550;DHT22;58101;48.658;2.328;2024-02-21T07:43:47;7.20;99.90
70550;DHT22;58101;48.658;2.328;2024-02-21T07:46:14;7.20;99.90
70550;DHT22;58101;48.658;2.328;2024-02-21T07:48:40;7.20;99.90
70550;DHT22;58101;48.658;2.328;2024-02-21T07:51:05;7.20;99.90
70550;DHT22;58101;48.658;2.328;2024-02-21T07:53:31;7.20;99.90
70550;DHT22;58101;48.658;2.328;2024-02-21T07:55:57;7.30;99.90
70550;DHT22;58101;48.658;2.328;2024-02-21T07:58:22;7.30;99.90
70550;DHT22;58101;48.658;2.328;2024-02-21T08:00:48;7.40;99.90
70550;DHT22;58101;48.658;2.328;2024-02-21T08:03:14;7.30;99.90
70550;DHT22;58101;48.658;2.328;2024-02-21T08:05:41;7.40;99.90
70550;DHT22;58101;48.658;2.328;2024-02-21T08:08:06;7.40;99.90
70550;DHT22;58101;48.658;2.328;2024-02-21T08:10:33;7.40;99.90
70550;DHT22;58101;48.658;2.328;2024-02-21T08:12:59;7.60;99.90
70550;DHT22;58101;48.658;2.328;2024-02-21T08:15:25;7.40;99.90
70550;DHT22;58101;48.658;2.328;2024-02-21T08:17:55;7.40;99.90
70550;DHT22;58101;48.658;2.328;2024-02-21T08:20:24;7.50;99.90
70550;DHT22;58101;48.658;2.328;2024-02-21T08:22:50;7.60;99.90
70550;DHT22;58101;48.658;2.328;2024-02-21T08:25:15;7.60;99.90
70550;DHT22;58101;48.658;2.328;2024-02-21T08:27:41;7.60;99.90
70550;DHT22;58101;48.658;2.328;2024-02-21T08:30:07;7.70;99.90
70550;DHT22;58101;48.658;2.328;2024-02-21T08:32:34;7.70;99.90
70550;DHT22;58101;48.658;2.328;2024-02-21T08:35:01;7.90;99.90
70550;DHT22;58101;48.658;2.328;2024-02-21T08:37:27;7.70;99.90
70550;DHT22;58101;48.658;2.328;2024-02-21T08:39:53;7.80;99.90
70550;DHT22;58101;48.658;2.328;2024-02-21T08:42:18;7.90;99.90
70550;DHT22;58101;48.658;2.328;2024-02-21T08:44:44;8.00;99.90
70550;DHT22;58101;48.658;2.328;2024-02-21T08:47:11;7.90;99.90
70550;DHT22;58101;48.658;2.328;2024-02-21T08:49:37;8.00;99.90
70550;DHT22;58101;48.658;2.328;2024-02-21T08:52:03;8.00;99.90
70550;DHT22;58101;48.658;2.328;2024-02-21T08:54:28;8.00;99.90
70550;DHT22;58101;48.658;2.328;2024-02-21T08:56:55;8.10;99.90
70550;DHT22;58101;48.658;2.328;2024-02-21T08:59:22;8.10;99.90
70550;DHT22;58101;48.658;2.328;2024-02-21T09:01:47;8.10;99.90
70550;DHT22;58101;48.658;2.328;2024-02-21T09:04:13;8.30;99.90
70550;DHT22;58101;48.658;2.328;2024-02-21T09:06:39;8.20;99.90
70550;DHT22;58101;48.658;2.328;2024-02-21T09:09:08;8.20;99.90
70550;DHT22;58101;48.658;2.328;2024-02-21T09:11:34;8.20;99.90
70550;DHT22;58101;48.658;2.328;2024-02-21T09:14:00;8.30;99.90
70550;DHT22;58101;48.658;2.328;2024-02-21T09:16:25;8.30;99.90
70550;DHT22;58101;48.658;2.328;2024-02-21T09:18:51;8.30;99.90
70550;DHT22;58101;48.658;2.328;2024-02-21T09:21:18;8.20;99.90
70550;DHT22;58101;48.658;2.328;2024-02-21T09:23:44;8.30;99.90
70550;DHT22;58101;48.658;2.328;2024-02-21T09:26:10;8.30;99.90
70550;DHT22;58101;48.658;2.328;2024-02-21T09:28:39;8.40;99.90
70550;DHT22;58101;48.658;2.328;2024-02-21T09:31:05;8.40;99.90
70550;DHT22;58101;48.658;2.328;2024-02-21T09:33:30;8.50;99.90
70550;DHT22;58101;48.658;2.328;2024-02-21T09:35:56;8.50;99.90
70550;DHT22;58101;48.658;2.328;2024-02-21T09:38:21;8.60;99.90
70550;DHT22;58101;48.658;2.328;2024-02-21T09:40:47;8.80;99.90
70550;DHT22;58101;48.658;2.328;2024-02-21T09:43:17;8.70;99.90
70550;DHT22;58101;48.658;2.328;2024-02-21T09:45:46;8.90;99.90
70550;DHT22;58101;48.658;2.328;2024-02-21T09:48:34;8.80;99.90
70550;DHT22;58101;48.658;2.328;2024-02-21T09:51:05;8.80;99.90
70550;DHT22;58101;48.658;2.328;2024-02-21T09:53:32;8.70;99.90
70550;DHT22;58101;48.658;2.328;2024-02-21T09:55:59;8.80;99.90
70550;DHT22;58101;48.658;2.328;2024-02-21T09:58:26;8.80;99.90
70550;DHT22;58101;48.658;2.328;2024-02-21T10:00:53;8.80;99.90
70550;DHT22;58101;48.658;2.328;2024-02-21T10:03:21;8.90;99.90
70550;DHT22;58101;48.658;2.328;2024-02-21T10:05:48;8.90;99.90
70550;DHT22;58101;48.658;2.328;2024-02-21T10:08:16;8.90;99.90
70550;DHT22;58101;48.658;2.328;2024-02-21T10:10:45;8.90;99.90
70550;DHT22;58101;48.658;2.328;2024-02-21T10:13:25;9.00;99.90
70550;DHT22;58101;48.658;2.328;2024-02-21T10:16:07;9.10;99.90
70550;DHT22;58101;48.658;2.328;2024-02-21T10:18:34;9.20;99.90
70550;DHT22;58101;48.658;2.328;2024-02-21T10:21:09;9.40;99.90
70550;DHT22;58101;48.658;2.328;2024-02-21T10:23:50;9.40;99.90
70550;DHT22;58101;48.658;2.328;2024-02-21T10:26:17;9.50;99.90
70550;DHT22;58101;48.658;2.328;2024-02-21T10:28:43;9.60;99.90
70550;DHT22;58101;48.658;2.328;2024-02-21T10:31:11;9.70;99.90
70550;DHT22;58101;48.658;2.328;2024-02-21T10:33:38;9.90;99.90
70550;DHT22;58101;48.658;2.328;2024-02-21T10:36:10;10.00;99.90
70550;DHT22;58101;48.658;2.328;2024-02-21T10:38:37;10.10;99.90
70550;DHT22;58101;48.658;2.328;2024-02-21T10:41:05;10.20;99.90
70550;DHT22;58101;48.658;2.328;2024-02-21T10:43:40;10.50;99.90
70550;DHT22;58101;48.658;2.328;2024-02-21T10:46:09;10.40;99.90
70550;DHT22;58101;48.658;2.328;2024-02-21T10:48:43;10.50;99.90
70550;DHT22;58101;48.658;2.328;2024-02-21T10:51:20;10.50;99.90
70550;DHT22;58101;48.658;2.328;2024-02-21T10:56:34;10.50;99.90
70550;DHT22;58101;48.658;2.328;2024-02-21T10:59:03;10.50;99.90
70550;DHT22;58101;48.658;2.328;2024-02-21T11:01:30;10.50;99.90
70550;DHT22;58101;48.658;2.328;2024-02-21T11:04:05;10.50;99.90
70550;DHT22;58101;48.658;2.328;2024-02-21T11:06:32;10.40;99.90
70550;DHT22;58101;48.658;2.328;2024-02-21T11:09:06;10.40;99.90
70550;DHT22;58101;48.658;2.328;2024-02-21T11:11:43;10.40;99.90
70550;DHT22;58101;48.658;2.328;2024-02-21T11:14:11;10.50;99.90
70550;DHT22;58101;48.658;2.328;2024-02-21T11:16:43;10.50;99.90
70550;DHT22;58101;48.658;2.328;2024-02-21T11:19:18;10.50;99.90
70550;DHT22;58101;48.658;2.328;2024-02-21T11:21:44;10.60;99.90
70550;DHT22;58101;48.658;2.328;2024-02-21T11:24:10;10.60;99.90
70550;DHT22;58101;48.658;2.328;2024-02-21T11:26:38;10.50;99.90
70550;DHT22;58101;48.658;2.328;2024-02-21T11:29:04;10.60;99.90
70550;DHT22;58101;48.658;2.328;2024-02-21T11:31:43;10.60;99.90
70550;DHT22;58101;48.658;2.328;2024-02-21T11:34:12;10.70;99.90
70550;DHT22;58101;48.658;2.328;2024-02-21T11:36:52;10.80;99.90
70550;DHT22;58101;48.658;2.328;2024-02-21T11:39:25;10.70;99.90
70550;DHT22;58101;48.658;2.328;2024-02-21T11:42:06;10.70;99.90
70550;DHT22;58101;48.658;2.328;2024-02-21T11:44:36;10.80;99.90
70550;DHT22;58101;48.658;2.328;2024-02-21T11:47:06;10.90;99.90
70550;DHT22;58101;48.658;2.328;2024-02-21T11:49:38;10.80;99.90
70550;DHT22;58101;48.658;2.328;2024-02-21T11:52:05;10.90;99.90
70550;DHT22;58101;48.658;2.328;2024-02-21T11:54:31;10.90;99.90
70550;DHT22;58101;48.658;2.328;2024-02-21T11:56:57;10.80;99.90
70550;DHT22;58101;48.658;2.328;2024-02-21T11:59:22;11.00;99.90
70550;DHT22;58101;48.658;2.328;2024-02-21T12:01:48;10.90;99.90
70550;DHT22;58101;48.658;2.328;2024-02-21T12:04:15;11.10;99.90
70550;DHT22;58101;48.658;2.328;2024-02-21T12:06:44;11.10;99.90
70550;DHT22;58101;48.658;2.328;2024-02-21T12:09:10;11.10;99.90
70550;DHT22;58101;48.658;2.328;2024-02-21T12:11:39;11.00;99.90
70550;DHT22;58101;48.658;2.328;2024-02-21T12:14:04;11.20;99.90
70550;DHT22;58101;48.658;2.328;2024-02-21T12:16:34;11.10;99.90
70550;DHT22;58101;48.658;2.328;2024-02-21T12:19:03;11.20;99.90
70550;DHT22;58101;48.658;2.328;2024-02-21T12:21:33;11.20;99.90
70550;DHT22;58101;48.658;2.328;2024-02-21T12:24:21;11.20;99.90
70550;DHT22;58101;48.658;2.328;2024-02-21T12:26:47;11.30;99.90
70550;DHT22;58101;48.658;2.328;2024-02-21T12:29:13;11.30;99.90
70550;DHT22;58101;48.658;2.328;2024-02-21T12:31:38;11.30;99.90
70550;DHT22;58101;48.658;2.328;2024-02-21T12:34:05;11.20;99.90
70550;DHT22;58101;48.658;2.328;2024-02-21T12:36:33;11.10;99.90
70550;DHT22;58101;48.658;2.328;2024-02-21T12:38:59;11.10;99.90
70550;DHT22;58101;48.658;2.328;2024-02-21T12:41:27;11.20;99.90
70550;DHT22;58101;48.658;2.328;2024-02-21T12:43:53;11.00;99.90
70550;DHT22;58101;48.658;2.328;2024-02-21T12:46:19;11.00;99.90
70550;DHT22;58101;48.658;2.328;2024-02-21T12:48:45;11.00;99.90
70550;DHT22;58101;48.658;2.328;2024-02-21T12:51:10;11.10;99.90
70550;DHT22;58101;48.658;2.328;2024-02-21T12:53:36;11.10;99.90
70550;DHT22;58101;48.658;2.328;2024-02-21T12:56:02;11.00;99.90
70550;DHT22;58101;48.658;2.328;2024-02-21T12:58:28;11.00;99.90
70550;DHT22;58101;48.658;2.328;2024-02-21T13:00:57;10.90;99.90
70550;DHT22;58101;48.658;2.328;2024-02-21T13:03:22;11.00;99.90
70550;DHT22;58101;48.658;2.328;2024-02-21T13:05:48;11.00;99.90
70550;DHT22;58101;48.658;2.328;2024-02-21T13:08:13;11.00;99.90
70550;DHT22;58101;48.658;2.328;2024-02-21T13:10:39;11.00;99.90
70550;DHT22;58101;48.658;2.328;2024-02-21T13:13:05;11.00;99.90
70550;DHT22;58101;48.658;2.328;2024-02-21T13:15:30;11.00;99.90
70550;DHT22;58101;48.658;2.328;2024-02-21T13:17:57;11.00;99.90
70550;DHT22;58101;48.658;2.328;2024-02-21T13:20:25;10.90;99.90
70550;DHT22;58101;48.658;2.328;2024-02-21T13:22:52;10.80;99.90
70550;DHT22;58101;48.658;2.328;2024-02-21T13:25:17;10.80;99.90
70550;DHT22;58101;48.658;2.328;2024-02-21T13:27:46;10.70;99.90
70550;DHT22;58101;48.658;2.328;2024-02-21T13:30:12;10.60;99.90
70550;DHT22;58101;48.658;2.328;2024-02-21T13:32:38;10.60;99.90
70550;DHT22;58101;48.658;2.328;2024-02-21T13:35:04;10.60;99.90
70550;DHT22;58101;48.658;2.328;2024-02-21T13:37:31;10.40;99.90
70550;DHT22;58101;48.658;2.328;2024-02-21T13:39:57;10.30;99.90
70550;DHT22;58101;48.658;2.328;2024-02-21T13:42:22;10.30;99.90
70550;DHT22;58101;48.658;2.328;2024-02-21T13:44:49;10.20;99.90
70550;DHT22;58101;48.658;2.328;2024-02-21T13:47:15;10.20;99.90
70550;DHT22;58101;48.658;2.328;2024-02-21T13:49:41;10.00;99.90
70550;DHT22;58101;48.658;2.328;2024-02-21T13:52:07;9.90;99.90
70550;DHT22;58101;48.658;2.328;2024-02-21T13:54:33;10.00;99.90
70550;DHT22;58101;48.658;2.328;2024-02-21T13:56:59;9.80;99.90
70550;DHT22;58101;48.658;2.328;2024-02-21T13:59:26;9.80;99.90
70550;DHT22;58101;48.658;2.328;2024-02-21T14:01:52;10.00;99.90
70550;DHT22;58101;48.658;2.328;2024-02-21T14:04:17;9.70;99.90
70550;DHT22;58101;48.658;2.328;2024-02-21T14:06:43;9.70;99.90
70550;DHT22;58101;48.658;2.328;2024-02-21T14:09:10;9.60;99.90
70550;DHT22;58101;48.658;2.328;2024-02-21T14:11:35;9.60;99.90
70550;DHT22;58101;48.658;2.328;2024-02-21T14:14:03;9.60;99.90
70550;DHT22;58101;48.658;2.328;2024-02-21T14:16:29;9.40;99.90
70550;DHT22;58101;48.658;2.328;2024-02-21T14:18:55;9.50;99.90
70550;DHT22;58101;48.658;2.328;2024-02-21T14:21:20;9.60;99.90
70550;DHT22;58101;48.658;2.328;2024-02-21T14:23:46;9.50;99.90
70550;DHT22;58101;48.658;2.328;2024-02-21T14:26:12;9.60;99.90
70550;DHT22;58101;48.658;2.328;2024-02-21T14:28:37;9.50;99.90
70550;DHT22;58101;48.658;2.328;2024-02-21T14:31:03;9.60;99.90
70550;DHT22;58101;48.658;2.328;2024-02-21T14:33:31;9.40;99.90
70550;DHT22;58101;48.658;2.328;2024-02-21T14:35:57;9.40;99.90
70550;DHT22;58101;48.658;2.328;2024-02-21T14:38:22;9.40;99.90
70550;DHT22;58101;48.658;2.328;2024-02-21T14:40:48;9.50;99.90
70550;DHT22;58101;48.658;2.328;2024-02-21T14:43:14;9.40;99.90
70550;DHT22;58101;48.658;2.328;2024-02-21T14:45:40;9.40;99.90
70550;DHT22;58101;48.658;2.328;2024-02-21T14:48:06;9.30;99.90
70550;DHT22;58101;48.658;2.328;2024-02-21T14:50:32;9.40;99.90
70550;DHT22;58101;48.658;2.328;2024-02-21T14:52:57;9.40;99.90
70550;DHT22;58101;48.658;2.328;2024-02-21T14:55:23;9.30;99.90
70550;DHT22;58101;48.658;2.328;2024-02-21T14:57:49;9.30;99.90
70550;DHT22;58101;48.658;2.328;2024-02-21T15:00:15;9.30;99.90
70550;DHT22;58101;48.658;2.328;2024-02-21T15:02:41;9.30;99.90
70550;DHT22;58101;48.658;2.328;2024-02-21T15:05:07;9.30;99.90
70550;DHT22;58101;48.658;2.328;2024-02-21T15:07:33;9.30;99.90
70550;DHT22;58101;48.658;2.328;2024-02-21T15:09:58;9.30;99.90
70550;DHT22;58101;48.658;2.328;2024-02-21T15:12:24;9.30;99.90
70550;DHT22;58101;48.658;2.328;2024-02-21T15:14:50;9.30;99.90
70550;DHT22;58101;48.658;2.328;2024-02-21T15:17:17;9.30;99.90
70550;DHT22;58101;48.658;2.328;2024-02-21T15:19:43;9.30;99.90
70550;DHT22;58101;48.658;2.328;2024-02-21T15:22:12;9.30;99.90
70550;DHT22;58101;48.658;2.328;2024-02-21T15:24:41;9.30;99.90
70550;DHT22;58101;48.658;2.328;2024-02-21T15:27:07;9.40;99.90
70550;DHT22;58101;48.658;2.328;2024-02-21T15:29:34;9.40;99.90
70550;DHT22;58101;48.658;2.328;2024-02-21T15:32:02;9.20;99.90
70550;DHT22;58101;48.658;2.328;2024-02-21T15:34:28;9.20;99.90
70550;DHT22;58101;48.658;2.328;2024-02-21T15:36:53;9.20;99.90
70550;DHT22;58101;48.658;2.328;2024-02-21T15:39:19;9.20;99.90
70550;DHT22;58101;48.658;2.328;2024-02-21T15:41:44;9.20;99.90